Aviston, Illinois
Current Conditions -  °F | °C
As of 4:58 AM on Monday 20 Oct 2014 (Local Time) from KBLV Reporting Station
Overcast Overcast  
Wind Chill: 52°   Ceiling: 11000
Heat Index: 52°   Visibility: 7mi
Dew Point: 49°   Wind: 2mph
Humidity: 88%   Direction: NA
Pressure: 29.97"   Gusts: NA
Location:  38.61°N, 89.61°W
Report Text: KBLV 200958Z AUTO VRB02KT 7SM R14L/5500FT SCT090 BKN110 OVC130 11/09 A2997 RMK AO2 SLP152 T01110092
Loading
Personal Weather Stations






























Interactive Weather Map
Tropical Storm Tracking
New forecast layout! Learn more

10-Day Weather Forecast

Advertisements
Track Severe Weather on mobile